Time;durP1;ratioP1;P1;durP2;ratioP2;P2;SDS_P1;SDS_P2;PMS_P1;PMS_P2;Temp;Humidity;BMP_temperature;BMP_pressure;BME280_temperature;BME280_humidity;BME280_pressure;Samples;Min_cycle;Max_cycle;Signal;HPM_P1;HPM_P2
2023/07/29 00:00:30;;;;;;;10.82;6.50;;;;;;;;;;5070318;28;20052;-72
2023/07/29 00:02:56;;;;;;;8.80;5.50;;;;;;;;;;5071075;28;20063;-71
2023/07/29 00:05:22;;;;;;;7.60;4.90;;;;;;;;;;5072351;28;20029;-73
2023/07/29 00:07:48;;;;;;;6.93;4.97;;;;;;;;;;5072405;28;20475;-73
2023/07/29 00:10:14;;;;;;;7.03;4.80;;;;;;;;;;5071201;28;20108;-71
2023/07/29 00:12:40;;;;;;;7.50;4.32;;;;;;;;;;5072369;28;20074;-72
2023/07/29 00:15:06;;;;;;;7.20;4.32;;;;;;;;;;5071912;28;20096;-72
2023/07/29 00:17:32;;;;;;;9.15;4.53;;;;;;;;;;5072153;28;20028;-73
2023/07/29 00:19:58;;;;;;;6.35;4.18;;;;;;;;;;5072103;28;20031;-72
2023/07/29 00:22:24;;;;;;;7.80;4.25;;;;;;;;;;5071748;28;20024;-72
2023/07/29 00:24:55;;;;;;;11.02;4.47;;;;;;;;;;5072070;28;20378;-72
2023/07/29 00:27:21;;;;;;;8.63;4.20;;;;;;;;;;5071995;28;20069;-73
2023/07/29 00:29:47;;;;;;;5.57;3.60;;;;;;;;;;5071861;28;20612;-73
2023/07/29 00:32:13;;;;;;;6.35;3.90;;;;;;;;;;5071794;28;20099;-73
2023/07/29 00:34:39;;;;;;;6.40;4.05;;;;;;;;;;5071991;28;20100;-74
2023/07/29 00:37:05;;;;;;;9.68;4.07;;;;;;;;;;5071858;28;20474;-73
2023/07/29 00:39:31;;;;;;;6.43;4.10;;;;;;;;;;5071961;28;20020;-74
2023/07/29 00:41:57;;;;;;;6.93;4.15;;;;;;;;;;5071813;28;20117;-74
2023/07/29 00:44:23;;;;;;;8.80;4.22;;;;;;;;;;5072283;28;20032;-73
2023/07/29 00:46:53;;;;;;;6.63;3.72;;;;;;;;;;5071635;28;20029;-72
2023/07/29 00:49:20;;;;;;;5.32;4.30;;;;;;;;;;5071829;28;20028;-74
2023/07/29 00:51:46;;;;;;;7.70;4.25;;;;;;;;;;5071834;28;20094;-73
2023/07/29 00:54:13;;;;;;;5.93;4.35;;;;;;;;;;5070846;28;20029;-73
2023/07/29 00:56:40;;;;;;;6.57;4.30;;;;;;;;;;5072072;28;20060;-73
2023/07/29 00:59:06;;;;;;;5.03;3.70;;;;;;;;;;5071824;28;20109;-73
2023/07/29 01:01:32;;;;;;;7.78;4.57;;;;;;;;;;5071694;28;20454;-74
2023/07/29 01:03:58;;;;;;;11.15;3.83;;;;;;;;;;5071714;28;20440;-72
2023/07/29 01:06:33;;;;;;;7.35;3.85;;;;;;;;;;5071797;28;20051;-72
2023/07/29 01:09:03;;;;;;;8.23;4.30;;;;;;;;;;5070837;28;20474;-73
2023/07/29 01:11:35;;;;;;;6.05;4.07;;;;;;;;;;5071723;28;20021;-72
2023/07/29 01:14:21;;;;;;;6.95;4.15;;;;;;;;;;5071681;28;20028;-72
2023/07/29 01:16:51;;;;;;;11.25;4.57;;;;;;;;;;5071909;28;20086;-72
2023/07/29 01:19:27;;;;;;;13.75;4.20;;;;;;;;;;5075978;28;20037;-72
2023/07/29 01:21:55;;;;;;;7.82;4.65;;;;;;;;;;5071288;28;20059;-73
2023/07/29 01:24:21;;;;;;;6.88;4.28;;;;;;;;;;5070302;28;20024;-73
2023/07/29 01:26:47;;;;;;;7.80;3.90;;;;;;;;;;5073544;28;20028;-73
2023/07/29 01:29:13;;;;;;;6.28;4.15;;;;;;;;;;5074938;28;20031;-72
2023/07/29 01:31:42;;;;;;;6.28;4.03;;;;;;;;;;5075102;28;20414;-73
2023/07/29 01:34:17;;;;;;;5.78;3.63;;;;;;;;;;5074845;28;20074;-72
2023/07/29 01:36:45;;;;;;;9.52;4.10;;;;;;;;;;5076092;28;20024;-71
2023/07/29 01:39:12;;;;;;;9.20;3.88;;;;;;;;;;5080147;28;20068;-72
2023/07/29 01:41:39;;;;;;;5.85;4.00;;;;;;;;;;5078677;28;20041;-72
2023/07/29 01:44:06;;;;;;;7.82;4.18;;;;;;;;;;5074503;28;20029;-72
2023/07/29 01:46:35;;;;;;;8.02;4.72;;;;;;;;;;5074376;28;20028;-73
2023/07/29 01:49:01;;;;;;;7.53;4.50;;;;;;;;;;5074284;28;20028;-72
2023/07/29 01:51:27;;;;;;;7.55;4.13;;;;;;;;;;5074247;28;20059;-73
2023/07/29 01:53:55;;;;;;;7.93;4.10;;;;;;;;;;5073988;28;20025;-72
2023/07/29 01:56:21;;;;;;;6.82;4.75;;;;;;;;;;5074275;28;20024;-73
2023/07/29 01:58:47;;;;;;;6.78;4.40;;;;;;;;;;5074205;28;20031;-73
2023/07/29 02:01:13;;;;;;;7.70;5.03;;;;;;;;;;5074021;28;20024;-73
2023/07/29 02:03:39;;;;;;;12.98;5.25;;;;;;;;;;5073833;28;20052;-72
2023/07/29 02:06:05;;;;;;;10.23;5.28;;;;;;;;;;5074103;28;20105;-72
2023/07/29 02:08:31;;;;;;;14.38;6.40;;;;;;;;;;5074079;28;20055;-73
2023/07/29 02:10:57;;;;;;;8.98;5.75;;;;;;;;;;5074104;28;20017;-73
2023/07/29 02:13:23;;;;;;;11.15;6.30;;;;;;;;;;5073682;28;20020;-73
2023/07/29 02:15:49;;;;;;;11.88;6.38;;;;;;;;;;5073804;28;20451;-73
2023/07/29 02:18:15;;;;;;;10.73;6.95;;;;;;;;;;5073736;28;20039;-74
2023/07/29 02:20:48;;;;;;;10.57;6.72;;;;;;;;;;5073736;28;20024;-73
2023/07/29 02:23:14;;;;;;;12.30;6.80;;;;;;;;;;5073472;28;20025;-72
2023/07/29 02:25:40;;;;;;;11.02;7.15;;;;;;;;;;5073702;28;20107;-72
2023/07/29 02:28:06;;;;;;;11.65;6.93;;;;;;;;;;5073545;28;20074;-73
2023/07/29 02:30:32;;;;;;;12.32;8.13;;;;;;;;;;5073520;28;20449;-73
2023/07/29 02:32:59;;;;;;;12.88;7.70;;;;;;;;;;5073156;28;20025;-73
2023/07/29 02:35:25;;;;;;;13.45;8.02;;;;;;;;;;5073519;28;20051;-73
2023/07/29 02:37:51;;;;;;;13.15;7.80;;;;;;;;;;5072993;28;20016;-73
2023/07/29 02:40:17;;;;;;;11.30;7.85;;;;;;;;;;5073182;28;20347;-73
2023/07/29 02:42:43;;;;;;;12.07;8.20;;;;;;;;;;5073031;28;20028;-73
2023/07/29 02:45:10;;;;;;;14.23;8.00;;;;;;;;;;5070721;28;20039;-73
2023/07/29 02:47:37;;;;;;;14.68;8.52;;;;;;;;;;5074351;28;20044;-73
2023/07/29 02:50:03;;;;;;;11.77;8.35;;;;;;;;;;5071724;28;20375;-73
2023/07/29 02:52:29;;;;;;;14.20;8.55;;;;;;;;;;5072654;28;20021;-73
2023/07/29 02:54:55;;;;;;;11.35;7.60;;;;;;;;;;5077119;28;20509;-72
2023/07/29 02:57:21;;;;;;;14.05;7.72;;;;;;;;;;5073687;28;20032;-74
2023/07/29 02:59:47;;;;;;;12.50;8.38;;;;;;;;;;5074761;28;20028;-75
2023/07/29 03:02:13;;;;;;;14.25;8.88;;;;;;;;;;5077152;28;20028;-73
2023/07/29 03:04:39;;;;;;;10.30;7.65;;;;;;;;;;5081060;28;20046;-73
2023/07/29 03:07:05;;;;;;;12.85;7.90;;;;;;;;;;5081876;28;20055;-72
2023/07/29 03:09:31;;;;;;;15.05;9.75;;;;;;;;;;5081629;28;20025;-73
2023/07/29 03:11:57;;;;;;;13.85;9.13;;;;;;;;;;5081913;28;20075;-73
2023/07/29 03:14:22;;;;;;;11.85;8.63;;;;;;;;;;5080753;28;20041;-72
2023/07/29 03:16:48;;;;;;;13.32;9.23;;;;;;;;;;5081418;28;20104;-74
2023/07/29 03:19:16;;;;;;;13.57;8.80;;;;;;;;;;5079057;28;20029;-72
2023/07/29 03:21:42;;;;;;;13.63;9.45;;;;;;;;;;5077808;28;20116;-73
2023/07/29 03:24:08;;;;;;;14.20;10.32;;;;;;;;;;5076289;28;20029;-73
2023/07/29 03:26:34;;;;;;;11.98;8.98;;;;;;;;;;5075566;28;20097;-73
2023/07/29 03:29:00;;;;;;;15.15;10.35;;;;;;;;;;5074893;28;20074;-72
2023/07/29 03:31:25;;;;;;;12.02;10.25;;;;;;;;;;5072393;28;20021;-74
2023/07/29 03:33:52;;;;;;;16.95;11.60;;;;;;;;;;5072022;28;20645;-76
2023/07/29 03:36:19;;;;;;;15.20;10.00;;;;;;;;;;5072425;28;20040;-71
2023/07/29 03:38:45;;;;;;;15.35;12.27;;;;;;;;;;5072242;28;20024;-73
2023/07/29 03:41:11;;;;;;;17.85;11.40;;;;;;;;;;5072195;28;20036;-72
2023/07/29 03:43:37;;;;;;;15.75;11.05;;;;;;;;;;5072065;28;20031;-72
2023/07/29 03:46:03;;;;;;;19.33;12.57;;;;;;;;;;5075153;28;20028;-72
2023/07/29 03:48:31;;;;;;;17.52;12.02;;;;;;;;;;5072848;28;20032;-72
2023/07/29 03:50:57;;;;;;;19.95;12.75;;;;;;;;;;5074069;28;20024;-72
2023/07/29 03:53:23;;;;;;;18.60;13.43;;;;;;;;;;5074247;28;20107;-73
2023/07/29 03:55:50;;;;;;;14.38;11.15;;;;;;;;;;5078440;28;20493;-72
2023/07/29 03:58:16;;;;;;;20.52;13.13;;;;;;;;;;5084507;28;20021;-71
2023/07/29 04:00:41;;;;;;;19.10;13.30;;;;;;;;;;5080099;28;20038;-73
2023/07/29 04:03:09;;;;;;;20.88;13.18;;;;;;;;;;5071532;28;20397;-73
2023/07/29 04:05:35;;;;;;;20.58;14.07;;;;;;;;;;5071959;28;20025;-73
2023/07/29 04:08:01;;;;;;;23.48;17.65;;;;;;;;;;5071884;28;20028;-73
2023/07/29 04:10:27;;;;;;;25.40;17.10;;;;;;;;;;5071710;28;20486;-72
2023/07/29 04:12:53;;;;;;;28.67;17.17;;;;;;;;;;5071610;28;20430;-73
2023/07/29 04:15:19;;;;;;;32.85;21.77;;;;;;;;;;5071849;28;20050;-73
2023/07/29 04:17:45;;;;;;;29.90;20.73;;;;;;;;;;5071784;28;20032;-73
2023/07/29 04:20:11;;;;;;;30.02;18.90;;;;;;;;;;5071565;28;20047;-73
2023/07/29 04:22:37;;;;;;;34.13;22.02;;;;;;;;;;5071321;28;20069;-72
2023/07/29 04:25:04;;;;;;;39.42;25.73;;;;;;;;;;5071583;28;20115;-73
2023/07/29 04:27:30;;;;;;;34.72;24.23;;;;;;;;;;5071470;28;20083;-73
2023/07/29 04:29:56;;;;;;;40.00;23.85;;;;;;;;;;5071440;28;20036;-73
2023/07/29 04:32:22;;;;;;;42.00;27.35;;;;;;;;;;5071275;28;20031;-73
2023/07/29 04:34:48;;;;;;;44.72;28.98;;;;;;;;;;5071604;28;20070;-73
2023/07/29 04:37:14;;;;;;;43.95;27.77;;;;;;;;;;5071462;28;20517;-73
2023/07/29 04:39:40;;;;;;;39.92;26.65;;;;;;;;;;5071604;28;20029;-74
2023/07/29 04:42:06;;;;;;;49.63;29.95;;;;;;;;;;5068152;28;20051;-76
2023/07/29 04:44:32;;;;;;;53.17;33.38;;;;;;;;;;5071274;28;20028;-75
2023/07/29 04:46:58;;;;;;;44.85;29.48;;;;;;;;;;5074928;28;20107;-75
2023/07/29 04:49:24;;;;;;;50.83;31.83;;;;;;;;;;5070466;28;20032;-75
2023/07/29 04:51:50;;;;;;;47.85;30.70;;;;;;;;;;5071642;28;20070;-75
2023/07/29 04:54:16;;;;;;;51.55;31.58;;;;;;;;;;5070298;28;20033;-75
2023/07/29 04:56:42;;;;;;;57.47;33.50;;;;;;;;;;5075131;28;20055;-74
2023/07/29 04:59:08;;;;;;;48.60;29.85;;;;;;;;;;5075379;28;20028;-73
2023/07/29 05:01:34;;;;;;;56.58;34.03;;;;;;;;;;5078087;28;20025;-73
2023/07/29 05:04:00;;;;;;;49.33;28.98;;;;;;;;;;5075656;28;20073;-73
2023/07/29 05:06:26;;;;;;;51.85;30.98;;;;;;;;;;5075222;28;20482;-72
2023/07/29 05:08:52;;;;;;;63.22;29.33;;;;;;;;;;5074941;28;20389;-72
2023/07/29 05:11:18;;;;;;;45.63;29.98;;;;;;;;;;5074957;28;20016;-72
2023/07/29 05:13:44;;;;;;;51.97;33.78;;;;;;;;;;5074755;28;20032;-72
2023/07/29 05:16:10;;;;;;;48.72;28.00;;;;;;;;;;5075043;28;20021;-73
2023/07/29 05:18:36;;;;;;;40.13;27.70;;;;;;;;;;5074859;28;20482;-73
2023/07/29 05:21:02;;;;;;;53.50;30.77;;;;;;;;;;5075025;28;20032;-73
2023/07/29 05:23:28;;;;;;;51.47;27.88;;;;;;;;;;5074469;28;20025;-73
2023/07/29 05:25:54;;;;;;;42.08;27.13;;;;;;;;;;5074797;28;20111;-73
2023/07/29 05:28:20;;;;;;;45.95;30.05;;;;;;;;;;5074572;28;20433;-74
2023/07/29 05:30:46;;;;;;;48.13;29.73;;;;;;;;;;5074489;28;20078;-73
2023/07/29 05:33:12;;;;;;;57.13;34.65;;;;;;;;;;5074154;28;20048;-72
2023/07/29 05:35:38;;;;;;;52.28;30.65;;;;;;;;;;5074584;28;20023;-74
2023/07/29 05:38:06;;;;;;;47.03;30.50;;;;;;;;;;5074465;28;20032;-73
2023/07/29 05:40:32;;;;;;;43.00;27.83;;;;;;;;;;5074522;28;20024;-74
2023/07/29 05:42:58;;;;;;;41.70;27.15;;;;;;;;;;5072646;28;20051;-72
2023/07/29 05:45:24;;;;;;;44.05;29.20;;;;;;;;;;5080577;28;20024;-74
2023/07/29 05:47:50;;;;;;;41.75;28.83;;;;;;;;;;5074625;28;20025;-74
2023/07/29 05:50:16;;;;;;;40.47;27.30;;;;;;;;;;5074262;28;20032;-75
2023/07/29 05:52:42;;;;;;;35.88;26.90;;;;;;;;;;5075077;28;20453;-72
2023/07/29 05:55:08;;;;;;;41.60;27.08;;;;;;;;;;5068909;28;20033;-73
2023/07/29 05:57:34;;;;;;;36.53;25.13;;;;;;;;;;5070144;28;20066;-73
2023/07/29 06:00:00;;;;;;;36.95;24.98;;;;;;;;;;5080894;28;20032;-73
2023/07/29 06:02:26;;;;;;;30.92;22.45;;;;;;;;;;5072530;28;20063;-73
2023/07/29 06:04:52;;;;;;;27.70;21.05;;;;;;;;;;5082027;28;20025;-76
2023/07/29 06:07:18;;;;;;;31.50;21.40;;;;;;;;;;5072897;28;20040;-76
2023/07/29 06:09:44;;;;;;;34.70;21.27;;;;;;;;;;5074360;28;20043;-71
2023/07/29 06:12:10;;;;;;;38.17;23.20;;;;;;;;;;5072533;28;20375;-71
2023/07/29 06:14:36;;;;;;;34.10;24.30;;;;;;;;;;5073820;28;20020;-72
2023/07/29 06:17:02;;;;;;;35.63;25.13;;;;;;;;;;5073784;28;20162;-72
2023/07/29 06:19:28;;;;;;;28.98;21.75;;;;;;;;;;5073588;28;20131;-72
2023/07/29 06:21:56;;;;;;;32.72;23.33;;;;;;;;;;5071857;28;20039;-72
2023/07/29 06:24:21;;;;;;;36.22;24.17;;;;;;;;;;5073421;28;20028;-74
2023/07/29 06:26:47;;;;;;;37.42;23.17;;;;;;;;;;5073372;28;20077;-72
2023/07/29 06:29:13;;;;;;;36.92;23.92;;;;;;;;;;5073271;28;20470;-72
2023/07/29 06:31:39;;;;;;;31.63;21.63;;;;;;;;;;5073492;28;20029;-73
2023/07/29 06:34:05;;;;;;;28.33;21.38;;;;;;;;;;5073332;28;20550;-73
2023/07/29 06:36:31;;;;;;;32.30;22.27;;;;;;;;;;5073402;28;20020;-72
2023/07/29 06:38:57;;;;;;;30.10;21.13;;;;;;;;;;5073261;28;20556;-71
2023/07/29 06:41:23;;;;;;;40.58;25.98;;;;;;;;;;5073167;28;20033;-72
2023/07/29 06:43:49;;;;;;;33.03;23.63;;;;;;;;;;5073156;28;20060;-73
2023/07/29 06:46:15;;;;;;;36.72;22.02;;;;;;;;;;5074661;28;20028;-73
2023/07/29 06:48:41;;;;;;;35.08;23.15;;;;;;;;;;5075142;28;20047;-72
2023/07/29 06:51:07;;;;;;;32.17;22.20;;;;;;;;;;5074392;28;20028;-72
2023/07/29 06:53:33;;;;;;;30.42;19.65;;;;;;;;;;5074770;28;20048;-72
2023/07/29 06:55:59;;;;;;;31.70;22.90;;;;;;;;;;5074536;28;20040;-72
2023/07/29 06:58:25;;;;;;;34.20;22.90;;;;;;;;;;5074286;28;20074;-74
2023/07/29 07:00:51;;;;;;;32.72;21.10;;;;;;;;;;5073984;28;20147;-73
2023/07/29 07:03:17;;;;;;;27.92;21.20;;;;;;;;;;5073574;28;20060;-72
2023/07/29 07:05:43;;;;;;;30.17;19.67;;;;;;;;;;5073129;28;20021;-72
2023/07/29 07:08:09;;;;;;;29.10;19.15;;;;;;;;;;5073187;28;20466;-72
2023/07/29 07:10:35;;;;;;;31.77;21.65;;;;;;;;;;5073943;28;20085;-72
2023/07/29 07:13:01;;;;;;;30.95;20.85;;;;;;;;;;5073778;28;20045;-72
2023/07/29 07:15:27;;;;;;;29.48;21.05;;;;;;;;;;5072161;28;20020;-72
2023/07/29 07:17:53;;;;;;;36.83;21.40;;;;;;;;;;5072979;28;20396;-74
2023/07/29 07:20:19;;;;;;;35.75;23.75;;;;;;;;;;5073420;28;20024;-72
2023/07/29 07:22:45;;;;;;;32.63;21.75;;;;;;;;;;5071449;28;20025;-73
2023/07/29 07:25:11;;;;;;;33.40;23.08;;;;;;;;;;5072527;28;20025;-72
2023/07/29 07:27:38;;;;;;;34.88;22.17;;;;;;;;;;5072842;28;20032;-72
2023/07/29 07:30:04;;;;;;;35.10;24.23;;;;;;;;;;5072288;28;20130;-72
2023/07/29 07:32:30;;;;;;;37.80;25.00;;;;;;;;;;5075710;28;20078;-73
2023/07/29 07:34:56;;;;;;;39.92;25.20;;;;;;;;;;5075710;28;20013;-72
2023/07/29 07:37:22;;;;;;;42.80;26.67;;;;;;;;;;5073795;28;20024;-73
2023/07/29 07:39:48;;;;;;;37.33;24.92;;;;;;;;;;5071053;28;20035;-72
2023/07/29 07:42:14;;;;;;;32.90;23.50;;;;;;;;;;5071957;28;20397;-72
2023/07/29 07:44:41;;;;;;;34.63;23.67;;;;;;;;;;5072233;28;20029;-73
2023/07/29 07:47:07;;;;;;;31.83;23.13;;;;;;;;;;5072591;28;20093;-73
2023/07/29 07:49:33;;;;;;;40.47;24.15;;;;;;;;;;5072728;28;20400;-72
2023/07/29 07:51:59;;;;;;;35.42;25.52;;;;;;;;;;5073920;28;20030;-71
2023/07/29 07:54:25;;;;;;;35.40;22.95;;;;;;;;;;5072685;28;20020;-73
2023/07/29 07:56:51;;;;;;;36.80;23.80;;;;;;;;;;5081040;28;20024;-76
2023/07/29 07:59:17;;;;;;;34.35;22.20;;;;;;;;;;5077822;28;20055;-72
2023/07/29 08:01:43;;;;;;;32.70;21.35;;;;;;;;;;5079344;28;20029;-72
2023/07/29 08:04:08;;;;;;;33.25;22.55;;;;;;;;;;5077101;28;20024;-74
2023/07/29 08:06:35;;;;;;;37.28;23.27;;;;;;;;;;5079190;28;20489;-73
2023/07/29 08:09:01;;;;;;;31.80;21.17;;;;;;;;;;5077587;28;20023;-74
2023/07/29 08:11:27;;;;;;;37.00;22.27;;;;;;;;;;5073554;28;20428;-73
2023/07/29 08:13:53;;;;;;;41.58;21.15;;;;;;;;;;5071591;28;20024;-73
2023/07/29 08:16:19;;;;;;;35.63;22.77;;;;;;;;;;5069716;28;20443;-73
2023/07/29 08:18:45;;;;;;;35.33;20.80;;;;;;;;;;5071521;28;20029;-72
2023/07/29 08:21:11;;;;;;;36.05;21.98;;;;;;;;;;5071387;28;20500;-73
2023/07/29 08:23:37;;;;;;;34.97;22.70;;;;;;;;;;5070921;28;20037;-72
2023/07/29 08:26:05;;;;;;;38.58;21.63;;;;;;;;;;5074325;28;20051;-72
2023/07/29 08:28:31;;;;;;;33.58;20.27;;;;;;;;;;5078202;28;20016;-72
2023/07/29 08:30:57;;;;;;;35.30;21.73;;;;;;;;;;5078795;28;20028;-73
2023/07/29 08:33:23;;;;;;;36.63;22.20;;;;;;;;;;5074255;28;20077;-72
2023/07/29 08:35:49;;;;;;;39.00;24.67;;;;;;;;;;5079224;28;20025;-74
2023/07/29 08:38:15;;;;;;;39.90;24.77;;;;;;;;;;5083869;28;20085;-72
2023/07/29 08:40:53;;;;;;;46.83;26.23;;;;;;;;;;5076669;28;20129;-73
2023/07/29 08:43:20;;;;;;;42.05;25.58;;;;;;;;;;5077730;28;20025;-73
2023/07/29 08:45:47;;;;;;;39.72;24.77;;;;;;;;;;5078171;28;20057;-74
2023/07/29 08:48:13;;;;;;;44.67;26.48;;;;;;;;;;5079012;28;20111;-74
2023/07/29 08:50:39;;;;;;;39.58;24.58;;;;;;;;;;5081703;28;20028;-73
2023/07/29 08:53:05;;;;;;;42.47;26.35;;;;;;;;;;5076696;28;20024;-72
2023/07/29 08:55:32;;;;;;;43.30;25.38;;;;;;;;;;5078372;28;20367;-73
2023/07/29 08:57:58;;;;;;;53.22;27.23;;;;;;;;;;5080904;28;20017;-73
2023/07/29 09:00:25;;;;;;;37.63;25.55;;;;;;;;;;5080689;28;20111;-73
2023/07/29 09:02:51;;;;;;;36.55;24.45;;;;;;;;;;5079190;28;20710;-73
2023/07/29 09:05:17;;;;;;;32.60;23.98;;;;;;;;;;5078304;28;20020;-72
2023/07/29 09:07:44;;;;;;;40.47;25.48;;;;;;;;;;5080023;28;20016;-75
2023/07/29 09:10:10;;;;;;;39.33;24.48;;;;;;;;;;5088192;28;20029;-73
2023/07/29 09:12:37;;;;;;;35.30;23.23;;;;;;;;;;5080725;28;20028;-75
2023/07/29 09:15:03;;;;;;;39.45;23.00;;;;;;;;;;5078425;28;20031;-75
2023/07/29 09:17:31;;;;;;;33.70;20.55;;;;;;;;;;5077935;28;20048;-77
2023/07/29 09:19:58;;;;;;;38.13;20.90;;;;;;;;;;5078126;28;20401;-77
2023/07/29 09:22:27;;;;;;;29.33;19.85;;;;;;;;;;5080546;28;20048;-75
2023/07/29 09:24:53;;;;;;;34.50;20.67;;;;;;;;;;5077484;28;20035;-73
2023/07/29 09:27:31;;;;;;;27.35;18.83;;;;;;;;;;5078080;28;20032;-79
2023/07/29 09:29:58;;;;;;;39.90;20.23;;;;;;;;;;5079555;28;20085;-71
2023/07/29 09:32:24;;;;;;;31.20;19.60;;;;;;;;;;5077425;28;20020;-72
2023/07/29 09:34:50;;;;;;;29.17;19.05;;;;;;;;;;5077778;28;20561;-72
2023/07/29 09:37:22;;;;;;;35.83;20.02;;;;;;;;;;5077606;28;20021;-72
2023/07/29 09:39:49;;;;;;;39.08;20.05;;;;;;;;;;5077404;28;20032;-71
2023/07/29 09:42:22;;;;;;;59.30;30.75;;;;;;;;;;5077342;28;20029;-72
2023/07/29 09:44:49;;;;;;;28.67;18.40;;;;;;;;;;5077667;28;20043;-71
2023/07/29 09:47:25;;;;;;;28.15;15.98;;;;;;;;;;5074251;28;20363;-73
2023/07/29 09:49:52;;;;;;;22.73;15.43;;;;;;;;;;5073908;28;20081;-74
2023/07/29 09:52:19;;;;;;;22.67;13.55;;;;;;;;;;5073702;28;20414;-77
2023/07/29 09:54:45;;;;;;;21.27;13.38;;;;;;;;;;5075963;28;20036;-73
2023/07/29 09:57:14;;;;;;;21.30;12.18;;;;;;;;;;5077250;28;20016;-73
2023/07/29 09:59:40;;;;;;;20.48;10.70;;;;;;;;;;5075161;28;20029;-73
2023/07/29 10:02:14;;;;;;;17.23;9.52;;;;;;;;;;5076557;28;20029;-73
2023/07/29 10:04:41;;;;;;;13.80;9.23;;;;;;;;;;5074163;28;20107;-73
2023/07/29 10:07:07;;;;;;;14.85;9.68;;;;;;;;;;5074055;28;20028;-74
2023/07/29 10:09:34;;;;;;;12.32;8.90;;;;;;;;;;5074005;28;20151;-74
2023/07/29 10:12:00;;;;;;;11.55;7.70;;;;;;;;;;5073629;28;20020;-74
2023/07/29 10:14:28;;;;;;;9.35;6.70;;;;;;;;;;5074067;28;20039;-74
2023/07/29 10:16:54;;;;;;;11.52;6.25;;;;;;;;;;5073886;28;20021;-74
2023/07/29 10:19:20;;;;;;;8.75;5.20;;;;;;;;;;5072459;28;20036;-73
2023/07/29 10:21:49;;;;;;;10.70;5.43;;;;;;;;;;5073482;28;20066;-73
2023/07/29 10:24:19;;;;;;;9.43;6.65;;;;;;;;;;5075508;28;20028;-78
2023/07/29 10:26:50;;;;;;;9.43;6.40;;;;;;;;;;5073030;28;20031;-75
2023/07/29 10:29:21;;;;;;;7.30;5.75;;;;;;;;;;5073471;28;20111;-74
2023/07/29 10:31:47;;;;;;;8.85;5.53;;;;;;;;;;5074727;28;20403;-77
2023/07/29 10:34:13;;;;;;;7.90;5.78;;;;;;;;;;5073820;28;20029;-76
2023/07/29 10:36:42;;;;;;;6.25;4.85;;;;;;;;;;5078074;28;20039;-77
2023/07/29 10:39:18;;;;;;;7.88;5.45;;;;;;;;;;5078733;28;20040;-73
2023/07/29 10:42:01;;;;;;;10.30;4.60;;;;;;;;;;5074318;28;20033;-72
2023/07/29 10:44:42;;;;;;;8.38;5.03;;;;;;;;;;5074386;28;20478;-75
2023/07/29 10:47:12;;;;;;;6.13;4.18;;;;;;;;;;5074090;28;20426;-72
2023/07/29 10:49:41;;;;;;;6.53;3.50;;;;;;;;;;5074047;28;20024;-75
2023/07/29 10:52:07;;;;;;;4.55;3.22;;;;;;;;;;5074122;28;20039;-72
2023/07/29 10:54:42;;;;;;;6.30;3.35;;;;;;;;;;5073070;28;20025;-75
2023/07/29 10:57:09;;;;;;;4.65;3.35;;;;;;;;;;5073512;28;20023;-74
2023/07/29 10:59:35;;;;;;;5.57;3.53;;;;;;;;;;5073520;28;20082;-74
2023/07/29 11:02:01;;;;;;;7.93;4.88;;;;;;;;;;5073743;28;20028;-72
2023/07/29 11:04:29;;;;;;;6.20;3.05;;;;;;;;;;5072993;28;20024;-73
2023/07/29 11:07:04;;;;;;;8.60;4.10;;;;;;;;;;5072858;28;20024;-74
2023/07/29 11:09:51;;;;;;;18.60;7.10;;;;;;;;;;5073650;28;20028;-74
2023/07/29 11:12:36;;;;;;;7.03;3.45;;;;;;;;;;5073523;28;20027;-75
2023/07/29 11:15:05;;;;;;;8.23;4.40;;;;;;;;;;5073483;28;20498;-72
2023/07/29 11:17:36;;;;;;;5.88;2.90;;;;;;;;;;5072487;28;20025;-71
2023/07/29 11:20:03;;;;;;;7.93;3.95;;;;;;;;;;5072465;28;20025;-72
2023/07/29 11:22:30;;;;;;;9.32;3.75;;;;;;;;;;5074425;28;20024;-73
2023/07/29 11:24:57;;;;;;;9.48;5.10;;;;;;;;;;5075562;28;20074;-73
2023/07/29 11:27:23;;;;;;;8.15;4.25;;;;;;;;;;5074089;28;20371;-74
2023/07/29 11:29:49;;;;;;;10.27;5.03;;;;;;;;;;5073645;28;20024;-74
2023/07/29 11:32:16;;;;;;;8.98;3.97;;;;;;;;;;5072397;28;20056;-73
2023/07/29 11:34:42;;;;;;;7.10;3.20;;;;;;;;;;5074268;28;20020;-72
2023/07/29 11:37:10;;;;;;;5.88;4.07;;;;;;;;;;5074609;28;20016;-76
2023/07/29 11:39:42;;;;;;;6.70;4.45;;;;;;;;;;5073082;28;20032;-73
2023/07/29 11:42:11;;;;;;;10.60;4.97;;;;;;;;;;5073651;28;20029;-73
2023/07/29 11:44:37;;;;;;;6.65;4.63;;;;;;;;;;5078053;28;20107;-72
2023/07/29 11:47:07;;;;;;;5.25;4.43;;;;;;;;;;5079761;28;20020;-74
2023/07/29 11:49:33;;;;;;;5.60;3.72;;;;;;;;;;5079498;28;20023;-73
2023/07/29 11:52:00;;;;;;;9.23;4.07;;;;;;;;;;5084985;28;20028;-72
2023/07/29 11:54:26;;;;;;;5.88;4.07;;;;;;;;;;5073320;28;20621;-71
2023/07/29 11:56:52;;;;;;;6.18;4.45;;;;;;;;;;5075598;28;20025;-73
2023/07/29 11:59:18;;;;;;;7.57;3.90;;;;;;;;;;5083309;28;20021;-73
2023/07/29 12:01:45;;;;;;;6.85;3.83;;;;;;;;;;5080554;28;20094;-73
2023/07/29 12:04:12;;;;;;;5.25;3.50;;;;;;;;;;5082369;28;20028;-73
2023/07/29 12:06:38;;;;;;;6.78;3.88;;;;;;;;;;5078351;28;20098;-74
2023/07/29 12:09:04;;;;;;;5.05;3.70;;;;;;;;;;5077163;28;20031;-72
2023/07/29 12:11:31;;;;;;;6.30;3.75;;;;;;;;;;5072067;28;20471;-73
2023/07/29 12:13:57;;;;;;;4.32;2.88;;;;;;;;;;5077950;28;20028;-73
2023/07/29 12:16:23;;;;;;;3.33;2.58;;;;;;;;;;5072786;28;20021;-73
2023/07/29 12:18:50;;;;;;;4.40;2.53;;;;;;;;;;5076106;28;20089;-74
2023/07/29 12:21:17;;;;;;;7.25;2.78;;;;;;;;;;5076042;28;20482;-73
2023/07/29 12:23:43;;;;;;;3.38;2.50;;;;;;;;;;5075614;28;20047;-73
2023/07/29 12:26:09;;;;;;;5.40;2.85;;;;;;;;;;5078523;28;20035;-73
2023/07/29 12:28:35;;;;;;;3.28;2.75;;;;;;;;;;5073916;28;20028;-73
2023/07/29 12:31:01;;;;;;;5.22;2.70;;;;;;;;;;5072973;28;20114;-75
2023/07/29 12:33:38;;;;;;;3.95;2.90;;;;;;;;;;5072176;28;20478;-73
2023/07/29 12:36:05;;;;;;;6.72;2.70;;;;;;;;;;5072498;28;20020;-72
2023/07/29 12:38:31;;;;;;;2.25;1.98;;;;;;;;;;5072182;28;20024;-75
2023/07/29 12:40:57;;;;;;;3.05;2.20;;;;;;;;;;5071353;28;20039;-73
2023/07/29 12:43:23;;;;;;;5.82;2.45;;;;;;;;;;5074056;28;20024;-75
2023/07/29 12:45:52;;;;;;;2.30;1.90;;;;;;;;;;5073123;28;20024;-73
2023/07/29 12:48:18;;;;;;;4.22;1.90;;;;;;;;;;5073158;28;20028;-73
2023/07/29 12:50:44;;;;;;;3.85;2.25;;;;;;;;;;5072465;28;20028;-72
2023/07/29 12:53:11;;;;;;;3.38;2.20;;;;;;;;;;5072354;28;20024;-72
2023/07/29 12:55:37;;;;;;;3.13;1.90;;;;;;;;;;5072426;28;20359;-75
2023/07/29 12:58:03;;;;;;;3.97;1.90;;;;;;;;;;5071876;28;20029;-73
2023/07/29 13:00:29;;;;;;;3.08;1.90;;;;;;;;;;5071443;28;20096;-73
2023/07/29 13:02:55;;;;;;;3.50;2.00;;;;;;;;;;5071110;28;20062;-73
2023/07/29 13:05:21;;;;;;;3.17;2.03;;;;;;;;;;5071672;28;20024;-75
2023/07/29 13:07:47;;;;;;;3.45;1.80;;;;;;;;;;5071350;28;20103;-74
2023/07/29 13:10:14;;;;;;;3.42;2.17;;;;;;;;;;5070007;28;20116;-74
2023/07/29 13:12:40;;;;;;;3.35;1.80;;;;;;;;;;5071079;28;20047;-74
2023/07/29 13:15:06;;;;;;;2.47;2.20;;;;;;;;;;5071428;28;20039;-74
2023/07/29 13:17:33;;;;;;;5.45;2.20;;;;;;;;;;5071469;28;20143;-74
2023/07/29 13:19:59;;;;;;;4.47;1.80;;;;;;;;;;5068953;28;20024;-73
2023/07/29 13:22:25;;;;;;;3.45;1.77;;;;;;;;;;5073798;28;20025;-78
2023/07/29 13:24:51;;;;;;;2.83;1.85;;;;;;;;;;5064289;28;20028;-74
2023/07/29 13:27:17;;;;;;;3.88;2.30;;;;;;;;;;5055191;28;20033;-73
2023/07/29 13:29:43;;;;;;;4.25;2.17;;;;;;;;;;5056068;28;20067;-74
2023/07/29 13:32:09;;;;;;;6.78;2.67;;;;;;;;;;5056992;28;20021;-73
2023/07/29 13:34:35;;;;;;;4.88;2.30;;;;;;;;;;5056814;28;20086;-74
2023/07/29 13:37:02;;;;;;;5.22;2.30;;;;;;;;;;5056881;28;20029;-73
2023/07/29 13:39:28;;;;;;;6.82;2.15;;;;;;;;;;5056482;28;20410;-73
2023/07/29 13:41:54;;;;;;;7.57;2.30;;;;;;;;;;5056231;28;20087;-73
2023/07/29 13:44:20;;;;;;;3.58;2.17;;;;;;;;;;5055860;28;20063;-73
2023/07/29 13:46:46;;;;;;;8.02;2.08;;;;;;;;;;5057122;28;20033;-73
2023/07/29 13:49:12;;;;;;;4.38;2.00;;;;;;;;;;5056415;28;20093;-72
2023/07/29 13:51:38;;;;;;;6.93;2.17;;;;;;;;;;5055256;28;20376;-73
2023/07/29 13:54:04;;;;;;;5.13;2.20;;;;;;;;;;5057932;28;20028;-73
2023/07/29 13:56:30;;;;;;;5.93;2.20;;;;;;;;;;5055800;28;20024;-73
2023/07/29 13:58:56;;;;;;;3.47;1.85;;;;;;;;;;5053180;28;20094;-73
2023/07/29 14:01:22;;;;;;;3.60;1.75;;;;;;;;;;5055735;28;20021;-73
2023/07/29 14:03:48;;;;;;;5.50;2.08;;;;;;;;;;5054733;28;20025;-73
2023/07/29 14:06:14;;;;;;;5.82;1.67;;;;;;;;;;5055090;28;20029;-72
2023/07/29 14:08:41;;;;;;;5.72;1.90;;;;;;;;;;5054714;28;20100;-73
2023/07/29 14:11:07;;;;;;;6.07;2.13;;;;;;;;;;5057252;28;20441;-75
2023/07/29 14:13:33;;;;;;;3.65;1.90;;;;;;;;;;5054132;28;20021;-72
2023/07/29 14:16:03;;;;;;;5.15;1.90;;;;;;;;;;5060478;28;20024;-73
2023/07/29 14:18:29;;;;;;;9.52;2.58;;;;;;;;;;5065441;28;20029;-73
2023/07/29 14:20:55;;;;;;;8.48;2.72;;;;;;;;;;5062215;28;20021;-73
2023/07/29 14:23:21;;;;;;;6.80;2.50;;;;;;;;;;5061704;28;20096;-74
2023/07/29 14:25:47;;;;;;;3.22;1.90;;;;;;;;;;5054211;28;20487;-74